createdAt,value
2022-08-17T00:01:51.869Z,99.90
2022-08-17T00:04:23.581Z,99.90
2022-08-17T00:06:53.379Z,99.90
2022-08-17T00:09:21.594Z,99.90
2022-08-17T00:12:03.915Z,99.90
2022-08-17T00:14:38.962Z,99.90
2022-08-17T00:17:07.115Z,99.90
2022-08-17T00:19:36.654Z,99.90
2022-08-17T00:22:31.288Z,99.90
2022-08-17T00:24:55.452Z,99.90
2022-08-17T00:27:23.615Z,99.90
2022-08-17T00:29:52.223Z,99.90
2022-08-17T00:33:12.614Z,99.90
2022-08-17T00:35:12.599Z,99.90
2022-08-17T00:37:41.043Z,99.90
2022-08-17T00:40:12.986Z,99.90
2022-08-17T00:42:42.157Z,99.90
2022-08-17T00:45:13.401Z,99.90
2022-08-17T00:47:42.537Z,99.90
2022-08-17T00:50:16.459Z,99.90
2022-08-17T00:52:52.513Z,99.90
2022-08-17T00:55:22.342Z,99.90
2022-08-17T00:57:55.619Z,99.90
2022-08-17T01:00:28.275Z,99.90
2022-08-17T01:03:01.304Z,99.90
2022-08-17T01:05:33.171Z,99.90
2022-08-17T01:08:03.610Z,99.90
2022-08-17T01:10:59.690Z,99.90
2022-08-17T01:13:28.739Z,99.90
2022-08-17T01:16:00.284Z,99.90
2022-08-17T01:18:29.191Z,99.90
2022-08-17T01:21:04.280Z,99.90
2022-08-17T01:23:34.120Z,99.90
2022-08-17T01:26:03.189Z,99.90
2022-08-17T01:28:53.778Z,99.90
2022-08-17T01:31:25.301Z,99.90
2022-08-17T01:33:53.532Z,99.90
2022-08-17T01:36:22.561Z,99.90
2022-08-17T01:38:52.139Z,99.90
2022-08-17T01:41:22.689Z,99.90
2022-08-17T01:43:55.191Z,99.90
2022-08-17T01:46:27.900Z,99.90
2022-08-17T01:48:57.917Z,99.90
2022-08-17T01:51:27.091Z,99.90
2022-08-17T01:53:59.451Z,99.90
2022-08-17T01:56:30.009Z,99.90
2022-08-17T01:58:58.428Z,99.90
2022-08-17T02:01:30.388Z,99.90
2022-08-17T02:04:01.562Z,99.90
2022-08-17T02:06:31.597Z,99.90
2022-08-17T02:09:16.983Z,99.90
2022-08-17T02:11:46.126Z,99.90
2022-08-17T02:14:15.002Z,99.90
2022-08-17T02:16:43.850Z,99.90
2022-08-17T02:19:14.405Z,99.90
2022-08-17T02:21:44.793Z,99.90
2022-08-17T02:24:58.001Z,99.90
2022-08-17T02:27:07.744Z,99.90
2022-08-17T02:29:35.935Z,99.90
2022-08-17T02:32:05.068Z,99.90
2022-08-17T02:34:33.422Z,99.90
2022-08-17T02:37:01.559Z,99.90
2022-08-17T02:39:31.492Z,99.90
2022-08-17T02:42:02.403Z,99.90
2022-08-17T02:44:39.608Z,99.90
2022-08-17T02:47:09.906Z,99.90
2022-08-17T02:49:38.683Z,99.90
2022-08-17T02:52:08.921Z,99.90
2022-08-17T02:54:40.871Z,99.90
2022-08-17T02:57:11.007Z,99.90
2022-08-17T02:59:39.344Z,99.90
2022-08-17T03:02:09.217Z,99.90
2022-08-17T03:04:37.491Z,99.90
2022-08-17T03:07:06.766Z,99.90
2022-08-17T03:09:35.253Z,99.90
2022-08-17T03:12:11.176Z,99.90
2022-08-17T03:14:41.438Z,99.90
2022-08-17T03:17:17.040Z,99.90
2022-08-17T03:19:45.774Z,99.90
2022-08-17T03:22:36.165Z,99.90
2022-08-17T03:25:02.190Z,99.90
2022-08-17T03:27:31.924Z,99.90
2022-08-17T03:30:00.140Z,99.90
2022-08-17T03:32:28.422Z,99.90
2022-08-17T03:35:00.913Z,99.90
2022-08-17T03:37:29.049Z,99.90
2022-08-17T03:39:57.237Z,99.90
2022-08-17T03:42:31.348Z,99.90
2022-08-17T03:45:03.305Z,99.90
2022-08-17T03:47:48.678Z,99.90
2022-08-17T03:50:35.473Z,99.90
2022-08-17T03:53:24.606Z,99.90
2022-08-17T03:56:10.028Z,99.90
2022-08-17T03:58:38.223Z,99.90
2022-08-17T04:01:08.471Z,99.90
2022-08-17T04:03:36.921Z,99.90
2022-08-17T04:06:05.717Z,99.90
2022-08-17T04:08:34.223Z,99.90
2022-08-17T04:11:02.843Z,99.90
2022-08-17T04:13:30.973Z,99.90
2022-08-17T04:16:00.038Z,99.90
2022-08-17T04:18:29.674Z,99.90
2022-08-17T04:20:57.854Z,99.90
2022-08-17T04:23:32.707Z,99.90
2022-08-17T04:26:01.069Z,99.90
2022-08-17T04:28:30.107Z,99.90
2022-08-17T04:30:58.576Z,99.90
2022-08-17T04:33:31.047Z,99.90
2022-08-17T04:36:01.615Z,99.90
2022-08-17T04:38:31.694Z,99.90
2022-08-17T04:41:18.580Z,99.90
2022-08-17T04:43:48.887Z,99.90
2022-08-17T04:46:19.353Z,99.90
2022-08-17T04:48:51.817Z,99.90
2022-08-17T04:51:22.361Z,99.90
2022-08-17T04:53:54.511Z,99.90
2022-08-17T04:56:25.988Z,99.90
2022-08-17T04:58:57.251Z,99.90
2022-08-17T05:01:29.308Z,99.90
2022-08-17T05:04:20.936Z,99.90
2022-08-17T05:06:51.757Z,99.90
2022-08-17T05:09:20.063Z,99.90
2022-08-17T05:11:48.398Z,99.90
2022-08-17T05:14:16.786Z,99.90
2022-08-17T05:16:45.885Z,99.90
2022-08-17T05:19:15.387Z,99.90
2022-08-17T05:21:43.549Z,99.90
2022-08-17T05:24:16.728Z,97.90
2022-08-17T05:27:06.014Z,97.20
2022-08-17T05:29:35.715Z,98.00
2022-08-17T05:32:37.975Z,98.00
2022-08-17T05:35:00.447Z,98.40
2022-08-17T05:37:28.892Z,96.50
2022-08-17T05:39:57.195Z,93.30
2022-08-17T05:42:25.658Z,93.50
2022-08-17T05:44:53.782Z,93.40
2022-08-17T05:47:23.179Z,92.40
2022-08-17T05:49:51.428Z,92.30
2022-08-17T05:52:34.541Z,91.50
2022-08-17T05:55:14.966Z,91.40
2022-08-17T05:58:01.020Z,90.30
2022-08-17T06:00:34.774Z,91.30
2022-08-17T06:03:23.607Z,91.00
2022-08-17T06:06:02.420Z,92.20
2022-08-17T06:08:39.659Z,93.00
2022-08-17T06:11:17.066Z,91.70
2022-08-17T06:14:14.592Z,89.10
2022-08-17T06:16:47.439Z,84.70
2022-08-17T06:19:20.038Z,81.90
2022-08-17T06:21:51.263Z,78.40
2022-08-17T06:24:28.559Z,75.30
2022-08-17T06:27:03.058Z,75.30
2022-08-17T06:29:41.220Z,69.30
2022-08-17T06:32:12.826Z,65.30
2022-08-17T06:34:43.758Z,63.80
2022-08-17T06:37:36.517Z,62.50
2022-08-17T06:40:21.290Z,61.00
2022-08-17T06:43:06.149Z,59.10
2022-08-17T06:45:40.088Z,58.30
2022-08-17T06:48:13.595Z,58.10
2022-08-17T06:50:48.056Z,57.10
2022-08-17T06:53:24.457Z,57.10
2022-08-17T06:56:01.017Z,55.40
2022-08-17T06:58:31.618Z,56.50
2022-08-17T07:01:07.016Z,56.00
2022-08-17T07:03:40.837Z,57.70
2022-08-17T07:06:15.597Z,58.00
2022-08-17T07:08:54.750Z,58.80
2022-08-17T07:11:28.454Z,56.80
2022-08-17T07:14:07.736Z,55.30
2022-08-17T07:16:42.238Z,51.40
2022-08-17T07:19:11.267Z,51.40
2022-08-17T07:21:58.339Z,50.20
2022-08-17T07:24:35.738Z,49.90
2022-08-17T07:27:12.829Z,49.00
2022-08-17T07:29:44.899Z,48.80
2022-08-17T07:32:18.629Z,48.00
2022-08-17T07:35:11.548Z,46.90
2022-08-17T07:37:41.554Z,47.10
2022-08-17T07:40:30.962Z,49.40
2022-08-17T07:43:22.051Z,46.90
2022-08-17T07:46:35.404Z,47.50
2022-08-17T07:49:25.521Z,47.30
2022-08-17T07:52:24.314Z,46.70
2022-08-17T07:54:53.789Z,47.10
2022-08-17T07:57:33.459Z,46.90
2022-08-17T08:00:19.487Z,44.80
2022-08-17T08:03:16.099Z,44.60
2022-08-17T08:05:54.523Z,44.60
2022-08-17T08:08:32.471Z,44.80
2022-08-17T08:11:07.264Z,44.30
2022-08-17T08:13:40.549Z,44.30
2022-08-17T08:16:31.247Z,44.70
2022-08-17T08:19:02.239Z,45.80
2022-08-17T08:21:41.969Z,45.70
2022-08-17T08:24:43.119Z,44.90
2022-08-17T08:27:22.326Z,43.30
2022-08-17T08:29:58.122Z,43.50
2022-08-17T08:32:48.141Z,43.20
2022-08-17T08:35:26.844Z,43.50
2022-08-17T08:38:03.629Z,41.70
2022-08-17T08:40:44.071Z,41.10
2022-08-17T08:43:23.910Z,41.10
2022-08-17T08:45:58.327Z,41.70
2022-08-17T08:48:53.711Z,39.90
2022-08-17T08:51:35.947Z,40.10
2022-08-17T08:54:15.670Z,38.40
2022-08-17T08:57:19.238Z,39.10
2022-08-17T08:59:51.172Z,40.60
2022-08-17T09:02:44.922Z,41.20
2022-08-17T09:05:26.575Z,39.80
2022-08-17T09:08:11.348Z,39.00
2022-08-17T09:10:45.565Z,40.30
2022-08-17T09:13:20.901Z,41.80
2022-08-17T09:15:56.081Z,40.30
2022-08-17T09:19:00.370Z,39.60
2022-08-17T09:21:22.593Z,39.80
2022-08-17T09:24:02.469Z,40.00
2022-08-17T09:26:35.845Z,37.70
2022-08-17T09:29:08.799Z,38.30
2022-08-17T10:03:06.846Z,38.50
2022-08-17T10:05:46.610Z,39.30
2022-08-17T10:08:25.639Z,39.60
2022-08-17T10:11:05.798Z,39.40
2022-08-17T10:13:53.452Z,38.60
2022-08-17T10:16:28.752Z,38.10
2022-08-17T10:19:06.191Z,38.40
2022-08-17T10:22:00.870Z,39.40
2022-08-17T10:25:20.879Z,38.30
2022-08-17T10:27:47.542Z,38.60
2022-08-17T10:30:18.793Z,40.10
2022-08-17T10:32:52.294Z,39.20
2022-08-17T10:35:34.397Z,39.20
2022-08-17T10:38:38.669Z,40.40
2022-08-17T10:41:24.159Z,41.20
2022-08-17T10:44:40.873Z,44.50
2022-08-17T10:47:08.109Z,46.40
2022-08-17T10:49:37.197Z,46.40
2022-08-17T10:52:25.070Z,47.30
2022-08-17T10:55:13.684Z,49.00
2022-08-17T10:57:45.511Z,49.30
2022-08-17T11:00:58.566Z,49.00
2022-08-17T11:03:27.689Z,48.40
2022-08-17T11:06:11.051Z,50.30
2022-08-17T11:09:21.216Z,48.80
2022-08-17T11:12:11.757Z,49.20
2022-08-17T11:15:04.835Z,50.20
2022-08-17T11:18:02.385Z,50.20
2022-08-17T11:20:54.487Z,51.50
2022-08-17T11:23:40.805Z,50.90
2022-08-17T11:26:26.218Z,51.80
2022-08-17T11:29:00.158Z,50.20
2022-08-17T11:31:38.761Z,49.90
2022-08-17T11:34:15.305Z,50.80
2022-08-17T11:37:15.537Z,50.10
2022-08-17T11:40:12.424Z,50.40
2022-08-17T11:43:00.479Z,51.60
2022-08-17T11:45:41.646Z,50.00
2022-08-17T11:48:39.543Z,50.90
2022-08-17T11:51:43.057Z,51.30
2022-08-17T11:54:34.587Z,50.10
2022-08-17T11:57:41.478Z,49.50
2022-08-17T12:00:31.582Z,50.10
2022-08-17T12:03:54.152Z,49.70
2022-08-17T12:06:54.706Z,49.20
2022-08-17T12:09:26.404Z,51.20
2022-08-17T12:12:13.869Z,50.30
2022-08-17T12:15:09.481Z,49.20
2022-08-17T12:17:41.525Z,49.20
2022-08-17T12:20:17.769Z,50.20
2022-08-17T12:22:54.933Z,49.60
2022-08-17T12:25:31.697Z,48.80
2022-08-17T12:28:06.014Z,49.50
2022-08-17T12:30:36.788Z,49.70
2022-08-17T12:33:12.056Z,48.80
2022-08-17T12:35:41.646Z,50.00
2022-08-17T12:38:32.494Z,48.60
2022-08-17T12:40:59.867Z,49.70
2022-08-17T12:43:32.945Z,49.10
2022-08-17T12:46:15.110Z,50.00
2022-08-17T12:48:55.110Z,49.60
2022-08-17T12:51:30.376Z,49.70
2022-08-17T12:53:58.599Z,50.00
2022-08-17T12:56:26.858Z,47.50
2022-08-17T12:58:56.751Z,49.20
2022-08-17T13:01:26.164Z,47.80
2022-08-17T13:04:01.002Z,47.00
2022-08-17T13:06:33.420Z,47.30
2022-08-17T13:09:11.289Z,48.30
2022-08-17T13:11:49.280Z,47.20
2022-08-17T13:14:19.068Z,47.90
2022-08-17T13:16:53.415Z,48.50
2022-08-17T13:19:29.869Z,48.40
2022-08-17T13:22:13.607Z,47.30
2022-08-17T13:24:54.587Z,48.30
2022-08-17T13:27:25.199Z,48.40
2022-08-17T13:29:55.903Z,49.00
2022-08-17T13:32:34.514Z,48.60
2022-08-17T13:35:14.172Z,49.00
2022-08-17T13:37:58.902Z,48.90
2022-08-17T13:40:32.270Z,49.50
2022-08-17T13:43:03.497Z,49.50
2022-08-17T13:45:46.106Z,49.00
2022-08-17T13:48:26.934Z,48.90
2022-08-17T13:51:18.383Z,49.30
2022-08-17T13:53:56.080Z,50.10
2022-08-17T13:56:41.732Z,49.90
2022-08-17T13:59:14.313Z,50.30
2022-08-17T14:01:51.132Z,49.60
2022-08-17T14:04:25.140Z,51.70
2022-08-17T14:06:57.942Z,50.90
2022-08-17T14:09:34.883Z,51.40
2022-08-17T14:12:07.945Z,50.40
2022-08-17T14:14:36.421Z,50.30
2022-08-17T14:17:14.893Z,49.40
2022-08-17T14:19:43.254Z,49.90
2022-08-17T14:22:18.101Z,49.40
2022-08-17T14:24:47.915Z,50.00
2022-08-17T14:27:18.394Z,48.40
2022-08-17T14:29:46.576Z,49.00
2022-08-17T14:32:20.651Z,49.30
2022-08-17T14:34:50.269Z,48.30
2022-08-17T14:37:18.792Z,48.50
2022-08-17T14:39:48.870Z,48.60
2022-08-17T14:42:17.858Z,49.20
2022-08-17T14:44:46.352Z,47.90
2022-08-17T14:47:16.018Z,47.80
2022-08-17T14:49:47.571Z,47.90
2022-08-17T14:52:18.609Z,48.30
2022-08-17T14:54:48.481Z,48.30
2022-08-17T14:57:23.634Z,48.20
2022-08-17T15:00:03.281Z,48.10
2022-08-17T15:02:31.875Z,48.40
2022-08-17T15:05:01.919Z,50.00
2022-08-17T15:07:30.995Z,50.30
2022-08-17T15:10:02.358Z,49.80
2022-08-17T15:12:34.034Z,49.10
2022-08-17T15:15:05.012Z,50.40
2022-08-17T15:17:45.149Z,49.40
2022-08-17T15:20:15.843Z,49.80
2022-08-17T15:22:45.733Z,50.50
2022-08-17T15:25:15.796Z,51.00
2022-08-17T15:27:44.262Z,50.10
2022-08-17T15:30:13.921Z,48.30
2022-08-17T15:32:51.434Z,48.60
2022-08-17T15:35:27.858Z,48.70
2022-08-17T15:37:58.647Z,50.00
2022-08-17T15:40:28.543Z,48.60
2022-08-17T15:42:57.957Z,49.10
2022-08-17T15:45:28.418Z,49.60
2022-08-17T15:47:56.653Z,48.60
2022-08-17T15:50:25.011Z,48.50
2022-08-17T15:52:58.846Z,48.70
2022-08-17T15:55:30.029Z,49.60
2022-08-17T15:57:58.765Z,52.80
2022-08-17T16:00:28.557Z,50.80
2022-08-17T16:03:46.298Z,50.30
2022-08-17T16:05:46.411Z,50.60
2022-08-17T16:08:20.014Z,51.50
2022-08-17T16:10:51.257Z,52.10
2022-08-17T16:13:20.116Z,52.00
2022-08-17T16:15:54.828Z,52.10
2022-08-17T16:18:31.078Z,52.30
2022-08-17T16:21:22.651Z,52.50
2022-08-17T16:23:53.540Z,52.50
2022-08-17T16:26:24.114Z,53.90
2022-08-17T16:28:52.771Z,54.40
2022-08-17T16:31:21.794Z,54.10
2022-08-17T16:34:16.381Z,54.80
2022-08-17T16:36:39.523Z,53.70
2022-08-17T16:39:07.772Z,53.50
2022-08-17T16:41:46.809Z,54.00
2022-08-17T16:44:17.020Z,54.00
2022-08-17T16:46:46.383Z,54.60
2022-08-17T16:49:23.228Z,54.70
2022-08-17T16:52:04.444Z,55.20
2022-08-17T16:54:32.701Z,55.10
2022-08-17T16:57:04.562Z,55.70
2022-08-17T16:59:41.961Z,56.00
2022-08-17T17:02:14.952Z,56.50
2022-08-17T17:04:49.124Z,56.70
2022-08-17T17:07:34.885Z,57.00
2022-08-17T17:10:08.620Z,57.00
2022-08-17T17:13:02.006Z,57.30
2022-08-17T17:15:35.623Z,57.40
2022-08-17T17:18:07.054Z,57.70
2022-08-17T17:20:44.058Z,57.50
2022-08-17T17:23:29.235Z,58.00
2022-08-17T17:26:04.495Z,58.30
2022-08-17T17:28:43.626Z,58.90
2022-08-17T17:31:16.003Z,59.10
2022-08-17T17:33:48.340Z,58.20
2022-08-17T17:36:26.928Z,58.50
2022-08-17T17:39:00.409Z,59.60
2022-08-17T17:41:34.423Z,59.80
2022-08-17T17:44:09.019Z,60.10
2022-08-17T17:46:40.973Z,60.70
2022-08-17T17:49:11.237Z,61.10
2022-08-17T17:52:06.485Z,62.60
2022-08-17T17:54:48.520Z,64.00
2022-08-17T17:57:24.766Z,66.40
2022-08-17T18:00:03.520Z,67.00
2022-08-17T18:02:53.023Z,65.10
2022-08-17T18:05:49.022Z,67.60
2022-08-17T18:08:32.304Z,68.60
2022-08-17T18:11:13.003Z,67.80
2022-08-17T18:13:54.796Z,67.30
2022-08-17T18:16:24.778Z,65.20
2022-08-17T18:18:53.766Z,68.10
2022-08-17T18:21:24.521Z,72.10
2022-08-17T18:23:56.066Z,74.10
2022-08-17T18:26:44.628Z,74.20
2022-08-17T18:29:31.763Z,74.00
2022-08-17T18:32:29.933Z,72.90
2022-08-17T18:35:00.599Z,73.80
2022-08-17T18:37:42.686Z,75.00
2022-08-17T18:40:33.991Z,76.90
2022-08-17T18:43:10.297Z,78.40
2022-08-17T18:45:46.840Z,82.50
2022-08-17T18:48:32.847Z,84.00
2022-08-17T18:51:21.342Z,84.90
2022-08-17T18:54:20.388Z,86.60
2022-08-17T18:56:54.885Z,87.50
2022-08-17T18:59:45.126Z,89.10
2022-08-17T19:02:39.113Z,90.50
2022-08-17T19:05:30.425Z,91.60
2022-08-17T19:08:19.893Z,92.90
2022-08-17T19:10:49.792Z,94.80
2022-08-17T19:13:23.249Z,97.40
2022-08-17T19:16:11.610Z,99.50
2022-08-17T19:18:46.623Z,99.90
2022-08-17T19:21:22.460Z,99.90
2022-08-17T19:23:53.877Z,99.90
2022-08-17T19:26:54.419Z,99.90
2022-08-17T19:29:16.728Z,99.90
2022-08-17T19:31:50.667Z,99.90
2022-08-17T19:34:33.537Z,99.90
2022-08-17T19:37:08.976Z,99.90
2022-08-17T19:39:44.706Z,99.90
2022-08-17T19:42:20.635Z,99.90
2022-08-17T19:44:58.571Z,99.90
2022-08-17T19:47:56.474Z,99.90
2022-08-17T19:50:38.560Z,99.90
2022-08-17T19:53:17.682Z,99.90
2022-08-17T19:55:55.499Z,99.90
2022-08-17T19:58:37.246Z,99.90
2022-08-17T20:01:08.219Z,99.90
2022-08-17T20:03:53.119Z,99.90
2022-08-17T20:06:23.260Z,99.90
2022-08-17T20:09:00.498Z,99.90
2022-08-17T20:11:36.026Z,99.90
2022-08-17T20:14:08.497Z,99.90
2022-08-17T20:16:36.689Z,99.90
2022-08-17T20:19:09.617Z,99.90
2022-08-17T20:21:44.017Z,99.90
2022-08-17T20:24:21.837Z,99.90
2022-08-17T20:26:58.203Z,99.90
2022-08-17T20:29:40.247Z,99.90
2022-08-17T20:32:19.871Z,99.90
2022-08-17T20:34:48.834Z,99.90
2022-08-17T20:37:30.807Z,99.90
2022-08-17T20:40:25.937Z,99.90
2022-08-17T20:42:54.806Z,99.90
2022-08-17T20:46:02.933Z,99.90
2022-08-17T20:48:38.961Z,99.90
2022-08-17T20:51:26.055Z,99.90
2022-08-17T20:54:36.494Z,99.90
2022-08-17T20:57:14.076Z,99.90
2022-08-17T21:00:14.100Z,99.90
2022-08-17T21:02:44.814Z,99.90
2022-08-17T21:05:59.884Z,99.90
2022-08-17T21:08:31.777Z,99.90
2022-08-17T21:11:01.539Z,99.90
2022-08-17T21:14:05.157Z,99.90
2022-08-17T21:16:46.940Z,99.90
2022-08-17T21:19:30.935Z,99.90
2022-08-17T21:22:08.673Z,99.90
2022-08-17T21:24:48.961Z,99.90
2022-08-17T21:27:33.878Z,99.90
2022-08-17T21:30:32.596Z,99.90
2022-08-17T21:33:26.859Z,99.90
2022-08-17T21:36:11.840Z,99.90
2022-08-17T21:38:44.157Z,99.90
2022-08-17T21:41:22.265Z,99.90
2022-08-17T21:43:53.109Z,99.90
2022-08-17T21:46:28.624Z,99.90
2022-08-17T21:49:09.140Z,99.90
2022-08-17T21:51:45.894Z,99.90
2022-08-17T21:54:28.175Z,99.90
2022-08-17T21:56:56.530Z,99.90
2022-08-17T21:59:28.641Z,99.90
2022-08-17T22:01:58.703Z,99.90
2022-08-17T22:04:31.234Z,99.90
2022-08-17T22:07:01.988Z,99.90
2022-08-17T22:09:32.837Z,99.90
2022-08-17T22:12:06.082Z,99.90
2022-08-17T22:14:52.064Z,99.90
2022-08-17T22:17:24.371Z,99.90
2022-08-17T22:19:56.608Z,99.90
2022-08-17T22:22:32.575Z,99.90
2022-08-17T22:25:06.091Z,99.90
2022-08-17T22:27:49.420Z,99.90
2022-08-17T22:30:26.246Z,99.90
2022-08-17T22:32:55.512Z,99.90
2022-08-17T22:35:40.991Z,99.90
2022-08-17T22:38:30.577Z,99.90
2022-08-17T22:41:24.867Z,99.90
2022-08-17T22:43:55.122Z,99.90
2022-08-17T22:46:25.717Z,99.90
2022-08-17T22:48:57.709Z,99.90
2022-08-17T22:51:30.266Z,99.90
2022-08-17T22:54:19.822Z,99.90
2022-08-17T22:57:10.398Z,99.90
2022-08-17T22:59:45.743Z,99.90
2022-08-17T23:02:19.248Z,99.90
2022-08-17T23:04:51.390Z,99.90
2022-08-17T23:07:23.718Z,99.90
2022-08-17T23:09:54.273Z,99.90
2022-08-17T23:12:27.438Z,99.90
2022-08-17T23:15:01.659Z,99.90
2022-08-17T23:17:37.164Z,99.90
2022-08-17T23:20:08.457Z,99.90
2022-08-17T23:22:52.527Z,99.90
2022-08-17T23:25:28.222Z,99.90
2022-08-17T23:27:57.814Z,99.90
2022-08-17T23:30:28.569Z,99.90
2022-08-17T23:32:59.637Z,99.90
2022-08-17T23:35:40.335Z,99.90
2022-08-17T23:38:11.530Z,99.90
2022-08-17T23:40:40.014Z,99.90
2022-08-17T23:43:23.991Z,99.90
2022-08-17T23:45:53.991Z,99.90
2022-08-17T23:48:28.611Z,99.90
2022-08-17T23:51:09.269Z,99.90
2022-08-17T23:53:44.188Z,99.90
2022-08-17T23:56:12.379Z,99.90
2022-08-17T23:58:42.559Z,99.90
